Time;durP1;ratioP1;P1;durP2;ratioP2;P2;SDS_P1;SDS_P2;PMS_P1;PMS_P2;Temp;Humidity;BMP_temperature;BMP_pressure;BME280_temperature;BME280_humidity;BME280_pressure;Samples;Min_cycle;Max_cycle;Signal;HPM_P1;HPM_P2
2022/06/09 10:15:50;;;;;;;9.80;5.03;;;;;;;30.89;50.96;98209.53;4972995;28;20232;-90
2022/06/09 10:18:21;;;;;;;8.75;4.53;;;;;;;30.78;51.49;98219.28;4974092;28;20185;-89
2022/06/09 10:21:10;;;;;;;7.18;4.90;;;;;;;30.58;53.27;98217.91;4957299;28;20254;-90
2022/06/09 10:23:59;;;;;;;8.43;4.72;;;;;;;30.46;52.75;98219.75;4974814;28;20173;-91
2022/06/09 10:26:38;;;;;;;13.10;5.30;;;;;;;30.32;53.49;98217.19;4974839;28;20200;-93
2022/06/09 10:29:13;;;;;;;7.90;4.55;;;;;;;30.00;54.75;98215.75;4957574;28;20642;-93
2022/06/09 10:32:16;;;;;;;9.57;4.82;;;;;;;29.13;56.65;98215.97;4957392;28;20242;-93
2022/06/09 10:35:21;;;;;;;8.63;5.28;;;;;;;28.82;57.80;98224.09;4977188;28;20234;-94
2022/06/09 10:37:56;;;;;;;8.23;4.60;;;;;;;28.38;59.53;98215.00;4961037;28;20180;-93
2022/06/09 10:40:54;;;;;;;9.80;5.90;;;;;;;28.33;60.36;98212.13;4960855;28;20553;-92
2022/06/09 10:43:56;;;;;;;9.85;5.38;;;;;;;28.02;62.33;98201.28;4963068;28;20196;-92
2022/06/09 10:55:49;;;;;;;10.27;5.90;;;;;;;27.35;68.11;98156.72;4978099;28;20168;-91
2022/06/09 10:58:27;;;;;;;8.20;5.40;;;;;;;27.08;68.70;98143.53;4977616;28;20183;-91
2022/06/09 11:00:53;;;;;;;10.13;5.05;;;;;;;26.74;68.66;98128.41;4977975;28;20161;-92
2022/06/09 11:03:27;;;;;;;10.65;4.72;;;;;;;26.89;69.04;98104.06;4960292;28;20207;-91
2022/06/09 11:06:11;;;;;;;9.88;5.57;;;;;;;27.10;69.23;98103.78;4977219;28;20195;-91
2022/06/09 11:09:19;;;;;;;11.38;5.85;;;;;;;27.12;72.09;98091.75;4960205;28;20164;-91
2022/06/09 11:12:29;;;;;;;8.50;5.50;;;;;;;27.66;69.96;98063.66;4977601;28;20161;-91
2022/06/09 11:19:18;;;;;;;5.50;3.22;;;;;;;28.29;63.94;98070.75;4936385;29;20261;-92
2022/06/09 11:22:21;;;;;;;5.60;3.28;;;;;;;28.27;61.39;98072.03;4959896;28;20188;-91
2022/06/09 11:24:59;;;;;;;5.70;2.90;;;;;;;28.07;56.63;98080.22;4883996;29;20187;-92
2022/06/09 11:28:31;;;;;;;5.10;2.45;;;;;;;28.17;56.77;98087.84;4968979;28;20256;-93
2022/06/09 11:31:36;;;;;;;4.45;2.20;;;;;;;28.31;55.55;98089.41;4960052;28;20192;-89
2022/06/09 11:34:20;;;;;;;5.32;2.00;;;;;;;28.12;53.81;98091.19;4977120;28;20305;-91
2022/06/09 11:37:23;;;;;;;4.78;1.88;;;;;;;28.06;54.98;98092.06;4960262;28;20191;-93
2022/06/09 11:46:38;;;;;;;4.13;1.52;;;;;;;28.29;58.12;98097.72;4976023;28;20649;-90
2022/06/09 11:49:58;;;;;;;2.67;1.27;;;;;;;28.62;53.14;98092.09;4976655;28;20185;-94
2022/06/09 11:59:54;;;;;;;3.00;1.58;;;;;;;28.30;52.48;98093.16;4976641;28;20657;-90
2022/06/09 14:23:31;;;;;;;1.80;0.95;;;;;;;26.98;57.52;98094.72;4976931;28;20220;-92
2022/06/09 14:26:13;;;;;;;4.00;1.40;;;;;;;26.97;57.57;98091.19;4978168;28;20666;-92
2022/06/09 14:28:39;;;;;;;2.38;1.10;;;;;;;26.71;57.19;98085.81;4961054;28;20176;-90
2022/06/09 14:31:04;;;;;;;3.53;1.80;;;;;;;26.20;57.69;98083.72;4977826;28;20187;-90
2022/06/09 14:33:30;;;;;;;4.82;1.35;;;;;;;25.87;60.48;98066.72;4960815;28;20592;-90
2022/06/09 14:35:56;;;;;;;3.40;1.13;;;;;;;25.62;60.43;98077.19;4977623;28;20243;-91
2022/06/09 14:38:22;;;;;;;2.47;1.00;;;;;;;25.42;61.66;98072.75;4960681;28;20178;-91
2022/06/09 14:40:52;;;;;;;2.13;1.30;;;;;;;25.51;61.23;98082.28;4977707;28;20262;-91
2022/06/09 14:43:17;;;;;;;3.40;1.67;;;;;;;25.80;60.64;98091.88;4977661;28;20179;-92
2022/06/09 14:45:49;;;;;;;2.63;1.43;;;;;;;25.97;60.93;98077.88;4977712;28;20200;-91
2022/06/09 14:48:18;;;;;;;2.67;1.30;;;;;;;26.08;62.84;98077.28;4978122;28;20260;-90
2022/06/09 14:50:44;;;;;;;2.87;1.53;;;;;;;26.02;61.97;98071.91;4960449;28;20195;-90
2022/06/09 14:53:13;;;;;;;3.67;1.30;;;;;;;25.97;61.87;98072.50;4960614;28;20214;-91
2022/06/09 14:55:40;;;;;;;6.10;1.07;;;;;;;26.00;61.70;98074.78;4977285;28;20195;-90
2022/06/09 14:58:05;;;;;;;5.37;1.13;;;;;;;26.07;61.10;98075.63;4960528;28;20589;-90
2022/06/09 15:00:33;;;;;;;3.13;1.30;;;;;;;26.06;61.13;98075.84;4960225;28;20279;-90
2022/06/09 15:02:59;;;;;;;2.83;1.60;;;;;;;26.06;61.17;98065.09;4977495;28;20183;-90
2022/06/09 15:05:25;;;;;;;2.60;1.10;;;;;;;26.03;61.19;98068.19;4977178;28;20643;-91
2022/06/09 15:07:51;;;;;;;2.77;1.67;;;;;;;25.86;60.76;98064.25;4977431;28;20255;-91
2022/06/09 15:10:30;;;;;;;2.43;1.27;;;;;;;25.73;61.88;98066.88;4951435;28;20173;-91
2022/06/09 15:12:55;;;;;;;4.90;1.33;;;;;;;25.66;63.19;98069.53;4970474;28;20184;-92
2022/06/09 15:15:22;;;;;;;3.77;1.73;;;;;;;25.64;63.28;98058.19;4960022;28;20206;-93
2022/06/09 15:17:50;;;;;;;7.30;2.13;;;;;;;25.54;63.15;98050.53;4956519;28;20714;-92
2022/06/09 15:20:26;;;;;;;4.33;2.20;;;;;;;25.48;63.69;98054.00;4953918;28;20189;-92
2022/06/09 15:22:51;;;;;;;8.40;2.20;;;;;;;25.49;63.93;98044.94;4977772;28;20237;-92
2022/06/09 15:25:17;;;;;;;3.90;1.47;;;;;;;25.78;64.49;98043.78;4973695;28;20177;-92
2022/06/09 15:27:43;;;;;;;3.97;2.00;;;;;;;25.99;64.21;98046.28;4956975;29;20300;-93
2022/06/09 15:30:14;;;;;;;5.43;1.90;;;;;;;26.28;63.60;98055.03;4957781;29;20252;-93
2022/06/09 15:32:39;;;;;;;5.47;1.70;;;;;;;26.48;61.84;98059.38;4956929;29;20173;-92
2022/06/09 15:35:05;;;;;;;3.05;1.40;;;;;;;26.50;63.85;98056.47;4940984;29;20627;-93
2022/06/09 15:37:30;;;;;;;5.03;1.60;;;;;;;26.58;61.80;98067.00;4957920;28;20184;-92
2022/06/09 15:40:04;;;;;;;4.75;2.00;;;;;;;26.77;61.58;98061.66;4959036;28;20564;-94
2022/06/09 15:42:47;;;;;;;4.38;1.63;;;;;;;26.82;61.06;98074.47;4959605;28;20168;-94
2022/06/09 15:45:16;;;;;;;5.50;1.67;;;;;;;26.94;60.96;98075.47;4959641;28;20646;-94
2022/06/09 15:47:42;;;;;;;4.75;1.85;;;;;;;27.07;62.05;98082.69;4960553;28;20646;-94
2022/06/09 15:50:44;;;;;;;3.85;2.03;;;;;;;27.11;62.03;98095.50;4960558;28;20181;-94
2022/06/09 15:53:49;;;;;;;3.47;1.95;;;;;;;27.14;62.94;98097.78;4974483;28;20212;-94
